Time;durP1;ratioP1;P1;durP2;ratioP2;P2;SDS_P1;SDS_P2;PMS_P1;PMS_P2;Temp;Humidity;BMP_temperature;BMP_pressure;BME280_temperature;BME280_humidity;BME280_pressure;Samples;Min_cycle;Max_cycle;Signal;HPM_P1;HPM_P2
2022/07/24 00:02:51;;;;;;;13.72;6.97;;;;;;;17.07;70.75;100475.88;2181200;80;21014;-76
2022/07/24 00:05:53;;;;;;;18.70;7.47;;;;;;;17.06;70.28;100482.24;2163823;81;21086;-76
2022/07/24 00:08:54;;;;;;;20.05;6.95;;;;;;;16.99;69.97;100480.89;2162512;82;21097;-76
2022/07/24 00:11:56;;;;;;;13.62;8.30;;;;;;;16.88;69.79;100476.09;2162848;81;20961;-75
2022/07/24 00:14:58;;;;;;;11.55;7.22;;;;;;;16.75;69.85;100479.00;2158863;82;21030;-77
2022/07/24 00:17:59;;;;;;;13.53;6.62;;;;;;;16.66;70.09;100479.34;2158164;81;21052;-76
2022/07/24 00:21:01;;;;;;;11.50;7.10;;;;;;;16.57;69.85;100480.84;2160290;82;21014;-76
2022/07/24 00:24:03;;;;;;;19.57;6.65;;;;;;;16.50;69.97;100484.50;2162943;82;21057;-76
2022/07/24 00:27:04;;;;;;;13.18;7.17;;;;;;;16.41;69.92;100477.13;2156819;82;21055;-76
2022/07/24 00:30:10;;;;;;;15.05;6.47;;;;;;;16.34;70.20;100481.12;2162758;82;21035;-76
2022/07/24 00:33:11;;;;;;;11.28;6.40;;;;;;;16.39;70.37;100481.03;2162721;82;21568;-76
2022/07/24 00:36:12;;;;;;;11.20;6.95;;;;;;;16.34;69.98;100485.13;2164079;82;21537;-76
2022/07/24 00:39:14;;;;;;;10.70;6.42;;;;;;;16.27;70.22;100480.75;2163149;82;21566;-76
2022/07/24 00:42:15;;;;;;;16.55;7.47;;;;;;;16.22;70.25;100478.67;2162103;82;21510;-76
2022/07/24 00:45:17;;;;;;;15.13;6.90;;;;;;;16.21;70.28;100481.53;2164676;82;20972;-76
2022/07/24 00:48:18;;;;;;;18.65;6.95;;;;;;;16.16;70.19;100486.11;2162422;82;21065;-76
2022/07/24 00:51:19;;;;;;;15.40;9.00;;;;;;;16.14;70.14;100476.14;2158212;81;21082;-76
2022/07/24 00:54:22;;;;;;;18.57;8.05;;;;;;;16.04;70.10;100479.13;2156801;82;21526;-76
2022/07/24 00:57:24;;;;;;;16.42;9.25;;;;;;;15.89;70.15;100479.22;2163963;82;21003;-75
2022/07/24 01:00:25;;;;;;;21.12;8.68;;;;;;;15.79;70.50;100472.02;2163542;80;21593;-76
2022/07/24 01:03:26;;;;;;;18.52;8.78;;;;;;;15.74;70.63;100474.47;2159870;82;21010;-76
2022/07/24 01:06:28;;;;;;;16.25;8.50;;;;;;;15.75;70.58;100476.63;2175622;81;21102;-76
2022/07/24 01:09:29;;;;;;;13.25;7.00;;;;;;;15.71;70.59;100472.19;2181285;81;21027;-76
2022/07/24 01:12:33;;;;;;;24.77;9.35;;;;;;;15.74;71.00;100476.29;2180345;81;22488;-76
2022/07/24 01:15:34;;;;;;;23.00;9.13;;;;;;;15.72;70.80;100475.67;2178810;81;20942;-76
2022/07/24 01:18:37;;;;;;;23.67;9.98;;;;;;;15.67;70.69;100473.02;2180933;81;21426;-76
2022/07/24 01:21:38;;;;;;;23.47;9.35;;;;;;;15.59;70.71;100468.31;2144720;81;21443;-76
2022/07/24 01:24:40;;;;;;;18.98;8.63;;;;;;;15.52;70.72;100469.59;2146689;81;21094;-76
2022/07/24 01:27:41;;;;;;;23.67;9.40;;;;;;;15.44;70.80;100472.38;2176469;80;21065;-76
2022/07/24 01:30:43;;;;;;;21.65;8.43;;;;;;;15.37;70.81;100475.48;2179851;81;21089;-76
2022/07/24 01:33:44;;;;;;;24.65;8.80;;;;;;;15.30;70.99;100476.76;2179421;81;21060;-75
2022/07/24 01:36:46;;;;;;;17.10;7.65;;;;;;;15.21;70.85;100474.71;2180659;81;21011;-76
2022/07/24 01:39:47;;;;;;;33.42;10.05;;;;;;;15.13;71.28;100468.14;2185236;81;21000;-75
2022/07/24 01:42:49;;;;;;;28.95;9.53;;;;;;;15.12;71.24;100465.64;2184505;81;21014;-75
2022/07/24 01:45:50;;;;;;;17.67;7.30;;;;;;;15.14;71.08;100469.78;2183966;81;21027;-76
2022/07/24 01:48:51;;;;;;;23.42;8.93;;;;;;;15.11;70.97;100469.34;2178863;81;21569;-76
2022/07/24 01:51:53;;;;;;;15.13;7.37;;;;;;;14.98;70.99;100471.36;2185001;80;21030;-75
2022/07/24 01:54:54;;;;;;;18.60;7.85;;;;;;;14.94;71.74;100470.88;2177221;81;21058;-76
2022/07/24 01:57:56;;;;;;;22.77;7.72;;;;;;;14.93;71.67;100476.43;2182058;81;20955;-75
2022/07/24 02:00:58;;;;;;;20.55;8.48;;;;;;;14.90;71.57;100470.13;2178662;81;21013;-76
2022/07/24 02:04:00;;;;;;;16.23;7.53;;;;;;;14.86;71.45;100463.48;2182143;81;21022;-75
2022/07/24 02:07:01;;;;;;;20.43;7.75;;;;;;;14.78;71.45;100471.94;2158626;82;21052;-76
2022/07/24 02:10:03;;;;;;;21.73;6.90;;;;;;;14.74;71.41;100465.80;2157857;81;21054;-76
2022/07/24 02:13:05;;;;;;;18.10;7.17;;;;;;;14.75;71.58;100469.64;2162382;82;21019;-76
2022/07/24 02:16:07;;;;;;;14.70;6.95;;;;;;;14.75;71.58;100473.64;2157959;82;20955;-76
2022/07/24 02:19:09;;;;;;;14.63;7.28;;;;;;;14.76;71.61;100467.79;2156301;81;22305;-76
2022/07/24 02:22:11;;;;;;;14.05;6.50;;;;;;;14.75;71.86;100464.30;2157621;82;21037;-76
2022/07/24 02:25:13;;;;;;;12.85;6.12;;;;;;;14.72;71.56;100468.64;2163952;82;21105;-76
2022/07/24 02:28:16;;;;;;;14.47;6.67;;;;;;;14.69;71.51;100466.34;2162206;81;21050;-75
2022/07/24 02:31:17;;;;;;;15.03;6.40;;;;;;;14.67;71.91;100468.39;2139512;81;21533;-76
2022/07/24 02:34:18;;;;;;;12.78;5.17;;;;;;;14.64;71.62;100471.92;2157564;82;21122;-76
2022/07/24 02:37:19;;;;;;;13.30;6.50;;;;;;;14.61;71.54;100461.61;2161314;82;21537;-76
2022/07/24 02:40:21;;;;;;;21.20;5.72;;;;;;;14.62;71.54;100468.63;2155271;82;21521;-76
2022/07/24 02:43:22;;;;;;;16.15;6.92;;;;;;;14.57;71.53;100471.33;2162413;82;21005;-76
2022/07/24 02:46:23;;;;;;;13.70;6.03;;;;;;;14.46;71.39;100471.75;2158042;81;21534;-76
2022/07/24 02:49:25;;;;;;;18.45;6.65;;;;;;;14.39;71.47;100476.66;2157981;82;21047;-76
2022/07/24 02:52:26;;;;;;;11.10;6.00;;;;;;;14.31;71.44;100473.08;2163169;81;21093;-76
2022/07/24 02:55:28;;;;;;;11.33;6.08;;;;;;;14.22;71.50;100472.85;2157501;82;21558;-76
2022/07/24 02:58:29;;;;;;;17.70;6.12;;;;;;;14.17;71.64;100476.56;2157977;81;21050;-76
2022/07/24 03:01:30;;;;;;;16.57;6.30;;;;;;;14.17;71.89;100483.75;2164587;81;20988;-75
2022/07/24 03:04:32;;;;;;;15.35;6.62;;;;;;;14.16;71.85;100480.22;2165501;81;21009;-76
2022/07/24 03:07:36;;;;;;;14.28;5.78;;;;;;;14.16;71.90;100486.89;2179008;81;21029;-76
2022/07/24 03:10:37;;;;;;;13.68;6.85;;;;;;;14.17;72.01;100487.23;2181838;81;21486;-76
2022/07/24 03:13:39;;;;;;;11.20;5.65;;;;;;;14.19;72.06;100490.56;2179693;80;21013;-76
2022/07/24 03:16:40;;;;;;;13.30;6.83;;;;;;;14.20;72.02;100488.20;2181697;80;20983;-76
2022/07/24 03:19:41;;;;;;;18.65;7.00;;;;;;;14.23;72.12;100496.36;2177129;81;21003;-76
2022/07/24 03:22:45;;;;;;;11.33;7.97;;;;;;;14.24;72.24;100495.34;2176319;81;21015;-75
2022/07/24 03:25:48;;;;;;;15.32;6.78;;;;;;;14.22;72.72;100499.53;2177388;81;21007;-76
2022/07/24 03:28:49;;;;;;;18.90;6.80;;;;;;;14.25;72.73;100503.69;2181142;81;20975;-76
2022/07/24 03:31:51;;;;;;;22.05;6.67;;;;;;;14.29;72.81;100509.80;2181250;80;20982;-76
2022/07/24 03:34:52;;;;;;;18.55;6.50;;;;;;;14.31;73.01;100510.45;2182922;81;20978;-76
2022/07/24 03:37:53;;;;;;;13.85;6.53;;;;;;;14.35;72.90;100506.39;2183318;80;21066;-76
2022/07/24 03:40:54;;;;;;;11.70;5.83;;;;;;;14.42;72.96;100509.70;2180857;81;20984;-75
2022/07/24 03:43:56;;;;;;;6.55;5.70;;;;;;;14.50;73.10;100511.78;2182044;80;21014;-76
2022/07/24 03:46:57;;;;;;;9.78;5.47;;;;;;;14.62;73.29;100516.19;2179328;81;20940;-75
2022/07/24 03:49:58;;;;;;;10.90;5.72;;;;;;;14.82;73.29;100519.13;2181126;81;21501;-76
2022/07/24 03:52:59;;;;;;;10.78;5.78;;;;;;;15.05;73.29;100524.87;2179075;81;21030;-76
2022/07/24 03:56:08;;;;;;;8.53;7.08;;;;;;;15.28;73.10;100526.08;2182381;81;21101;-76
2022/07/24 03:59:09;;;;;;;12.28;8.43;;;;;;;15.51;73.06;100523.25;2178220;80;21070;-77
2022/07/24 04:02:10;;;;;;;10.90;6.90;;;;;;;15.85;73.21;100530.62;2180559;81;20991;-76
2022/07/24 04:05:13;;;;;;;11.68;8.08;;;;;;;16.14;73.01;100526.48;2174569;80;21888;-76
2022/07/24 04:08:14;;;;;;;10.88;9.20;;;;;;;16.47;72.77;100519.23;2163569;81;20999;-76
2022/07/24 04:11:15;;;;;;;12.35;9.40;;;;;;;16.78;72.53;100520.66;2159749;81;21580;-76
2022/07/24 04:14:17;;;;;;;14.28;10.45;;;;;;;17.11;72.34;100518.67;2157416;81;20985;-76
2022/07/24 04:17:18;;;;;;;11.65;10.50;;;;;;;17.38;72.16;100515.06;2162355;82;21542;-76
2022/07/24 04:20:19;;;;;;;15.88;11.88;;;;;;;17.69;72.13;100519.06;2164413;81;21008;-76
2022/07/24 04:23:20;;;;;;;17.70;11.90;;;;;;;18.04;71.97;100518.92;2164305;82;21003;-76
2022/07/24 04:26:22;;;;;;;19.12;12.30;;;;;;;18.35;71.50;100517.77;2160015;80;21056;-76
2022/07/24 04:29:23;;;;;;;14.70;12.85;;;;;;;18.69;71.26;100520.41;2158050;82;22294;-76
2022/07/24 04:32:25;;;;;;;17.35;11.90;;;;;;;19.02;70.91;100525.20;2156948;82;21014;-76
2022/07/24 04:35:27;;;;;;;16.10;11.60;;;;;;;19.28;70.41;100526.14;2157234;82;20973;-76
2022/07/24 04:38:28;;;;;;;15.40;12.05;;;;;;;19.45;70.35;100521.09;2161118;82;20979;-76
2022/07/24 04:41:29;;;;;;;13.50;11.12;;;;;;;19.86;69.94;100522.53;2161372;81;21023;-76
2022/07/24 04:44:30;;;;;;;15.85;12.13;;;;;;;20.10;69.21;100516.35;2163199;81;21017;-76
2022/07/24 04:47:31;;;;;;;14.98;10.35;;;;;;;20.39;69.10;100527.50;2157556;82;20983;-76
2022/07/24 04:50:34;;;;;;;17.07;10.53;;;;;;;20.71;68.41;100529.59;2160678;82;21492;-77
2022/07/24 04:53:35;;;;;;;14.05;10.80;;;;;;;21.04;67.89;100540.55;2160899;82;21021;-76
2022/07/24 04:56:36;;;;;;;12.25;10.40;;;;;;;21.37;67.63;100538.83;2156266;82;21503;-76
2022/07/24 04:59:38;;;;;;;14.20;10.43;;;;;;;21.89;67.15;100530.19;2166477;81;21518;-76
2022/07/24 05:02:40;;;;;;;13.13;9.68;;;;;;;22.09;65.97;100539.33;2161991;82;21018;-76
2022/07/24 05:05:41;;;;;;;12.13;10.40;;;;;;;22.29;65.35;100543.91;2163927;82;20983;-76
2022/07/24 05:08:42;;;;;;;13.05;9.75;;;;;;;22.49;65.14;100545.44;2169567;81;21040;-77
2022/07/24 05:11:44;;;;;;;16.57;9.53;;;;;;;22.88;64.65;100553.89;2169137;81;20962;-76
2022/07/24 05:14:45;;;;;;;12.07;10.10;;;;;;;23.18;63.72;100551.86;2167990;81;20963;-76
2022/07/24 05:17:47;;;;;;;10.65;9.35;;;;;;;23.23;63.05;100553.33;2171834;82;21478;-76
2022/07/24 05:20:48;;;;;;;13.28;8.70;;;;;;;23.58;62.76;100565.91;2168836;82;20980;-77
2022/07/24 05:23:50;;;;;;;11.93;9.90;;;;;;;23.87;62.40;100568.63;2171404;82;21019;-74
2022/07/24 05:26:52;;;;;;;11.43;9.45;;;;;;;24.07;61.51;100569.52;2165396;81;21026;-75
2022/07/24 05:29:54;;;;;;;9.60;8.70;;;;;;;24.20;61.04;100574.62;2166004;82;21031;-75
2022/07/24 05:32:55;;;;;;;12.85;9.53;;;;;;;24.46;60.63;100575.88;2111031;83;21023;-75
2022/07/24 05:35:56;;;;;;;9.55;8.55;;;;;;;24.62;60.03;100579.66;2170312;81;21016;-76
2022/07/24 05:38:58;;;;;;;10.23;9.05;;;;;;;24.91;59.61;100578.16;2168957;81;21032;-75
2022/07/24 05:42:00;;;;;;;11.45;7.25;;;;;;;25.17;59.03;100574.76;2148123;82;21474;-74
2022/07/24 05:45:01;;;;;;;7.92;7.22;;;;;;;25.31;57.89;100575.71;2164108;81;20984;-73
2022/07/24 05:48:03;;;;;;;9.70;7.90;;;;;;;25.44;57.85;100582.94;2173430;81;21010;-76
2022/07/24 05:51:04;;;;;;;8.50;6.72;;;;;;;25.72;57.48;100580.53;2166839;81;21050;-74
2022/07/24 05:54:06;;;;;;;8.53;5.85;;;;;;;25.70;56.08;100590.01;2169142;82;20980;-79
2022/07/24 05:57:07;;;;;;;8.18;5.60;;;;;;;25.63;55.40;100592.13;2148414;82;21574;-75
2022/07/24 06:00:09;;;;;;;6.05;5.30;;;;;;;25.53;54.96;100586.56;2170778;82;20999;-76
2022/07/24 06:03:13;;;;;;;6.40;5.10;;;;;;;25.57;54.83;100590.43;2143971;82;20991;-73
2022/07/24 06:06:15;;;;;;;6.17;4.87;;;;;;;25.57;53.82;100587.72;2131953;81;21607;-77
2022/07/24 06:09:16;;;;;;;5.25;4.55;;;;;;;25.66;53.92;100589.71;2167183;81;21587;-72
2022/07/24 06:12:18;;;;;;;8.05;5.10;;;;;;;25.86;53.79;100593.75;2154215;82;21035;-72
2022/07/24 06:15:19;;;;;;;7.03;4.90;;;;;;;25.96;52.94;100598.45;2155478;81;21027;-72
2022/07/24 06:18:21;;;;;;;6.72;4.83;;;;;;;26.07;52.82;100600.19;2155282;82;21592;-74
2022/07/24 06:21:23;;;;;;;6.42;4.55;;;;;;;26.34;52.06;100600.97;2154402;82;21611;-72
2022/07/24 06:24:24;;;;;;;7.00;4.37;;;;;;;26.57;52.05;100605.80;2168932;80;21299;-72
2022/07/24 06:27:26;;;;;;;5.25;3.58;;;;;;;26.77;51.25;100607.84;2180443;80;21007;-73
2022/07/24 06:30:28;;;;;;;5.90;3.62;;;;;;;26.72;50.43;100603.20;2178950;80;21050;-74
2022/07/24 06:33:31;;;;;;;8.73;4.10;;;;;;;26.78;50.11;100599.97;2175209;80;21030;-74
2022/07/24 06:36:32;;;;;;;4.08;3.67;;;;;;;26.92;49.61;100597.58;2180061;80;21065;-75
2022/07/24 06:39:34;;;;;;;4.53;3.75;;;;;;;26.74;49.66;100599.66;2178026;80;21734;-75
2022/07/24 06:42:35;;;;;;;4.53;3.37;;;;;;;26.68;49.30;100602.07;2179577;80;21060;-75
2022/07/24 06:45:42;;;;;;;8.05;3.72;;;;;;;26.79;48.91;100605.14;2182166;80;21061;-73
2022/07/24 06:48:44;;;;;;;5.72;3.22;;;;;;;26.92;48.30;100598.94;2181176;80;21011;-75
2022/07/24 06:51:47;;;;;;;4.20;2.92;;;;;;;26.96;47.78;100601.42;2175628;80;21568;-74
2022/07/24 06:54:49;;;;;;;6.20;2.72;;;;;;;26.88;47.21;100601.92;2180178;80;21110;-74
2022/07/24 06:57:50;;;;;;;4.50;3.02;;;;;;;26.92;47.04;100602.50;2179627;80;21013;-74
2022/07/24 07:00:51;;;;;;;12.80;3.95;;;;;;;27.14;47.09;100598.78;2182418;80;21490;-74
2022/07/24 07:03:55;;;;;;;6.00;3.12;;;;;;;27.25;46.40;100598.59;2175143;81;20991;-74
2022/07/24 07:06:56;;;;;;;9.43;2.87;;;;;;;27.22;46.04;100590.95;2177331;80;21059;-74
2022/07/24 07:09:57;;;;;;;3.90;3.02;;;;;;;27.16;44.85;100600.19;2178185;80;21047;-75
2022/07/24 07:12:59;;;;;;;4.67;2.40;;;;;;;27.16;44.66;100588.48;2124507;81;21048;-74
2022/07/24 07:16:01;;;;;;;4.08;2.50;;;;;;;27.24;44.50;100595.59;2242013;78;21029;-75
2022/07/24 07:19:03;;;;;;;3.20;1.98;;;;;;;27.49;44.91;100601.69;2240372;78;21005;-75
2022/07/24 07:22:04;;;;;;;1.65;1.52;;;;;;;27.65;44.04;100597.11;2239563;78;20938;-75
2022/07/24 07:25:07;;;;;;;5.15;1.80;;;;;;;27.82;43.20;100594.70;2243532;78;21010;-74
2022/07/24 07:28:09;;;;;;;4.92;2.00;;;;;;;27.82;43.25;100600.16;2239561;78;21497;-75
2022/07/24 07:31:10;;;;;;;1.98;1.42;;;;;;;27.78;42.00;100595.77;2241122;78;20990;-77
2022/07/24 07:34:11;;;;;;;2.55;1.30;;;;;;;27.69;42.17;100591.39;2242186;78;21084;-78
2022/07/24 07:37:13;;;;;;;3.87;1.25;;;;;;;27.52;40.56;100586.71;2244132;78;21517;-77
2022/07/24 07:40:14;;;;;;;1.40;1.22;;;;;;;27.20;41.75;100594.51;2241041;78;21013;-76
2022/07/24 07:43:17;;;;;;;1.25;1.15;;;;;;;27.11;42.06;100597.41;2241439;78;20977;-76
2022/07/24 07:46:18;;;;;;;2.75;1.30;;;;;;;27.14;41.83;100598.23;2213186;79;21041;-76
2022/07/24 07:49:22;;;;;;;1.32;0.95;;;;;;;26.75;40.67;100599.95;2238718;78;20982;-75
2022/07/24 07:52:24;;;;;;;3.92;1.15;;;;;;;26.32;40.10;100604.48;2241102;78;21563;-78
2022/07/24 07:55:26;;;;;;;1.10;1.00;;;;;;;26.15;41.03;100606.52;2213274;78;21560;-80
2022/07/24 07:58:29;;;;;;;3.05;0.93;;;;;;;26.30;40.88;100609.90;2212155;79;21014;-78
2022/07/24 08:01:31;;;;;;;3.83;1.52;;;;;;;26.40;41.35;100611.36;2240187;78;20970;-68
2022/07/24 08:04:33;;;;;;;1.98;1.20;;;;;;;26.71;41.30;100608.34;2234541;78;21064;-76
2022/07/24 08:07:35;;;;;;;2.15;1.05;;;;;;;27.20;41.58;100614.09;2208439;78;21036;-66
2022/07/24 08:10:37;;;;;;;2.77;1.25;;;;;;;27.56;40.21;100615.60;2191425;80;21036;-74
2022/07/24 08:13:39;;;;;;;5.92;1.30;;;;;;;27.33;39.49;100609.52;2191390;80;21051;-75
2022/07/24 08:16:41;;;;;;;1.20;1.10;;;;;;;27.38;38.54;100612.83;2192701;80;20985;-76
2022/07/24 08:19:42;;;;;;;2.70;1.00;;;;;;;27.46;39.04;100613.13;2164532;80;20985;-71
2022/07/24 08:22:43;;;;;;;1.27;1.10;;;;;;;27.63;38.79;100619.72;2197180;80;21007;-74
2022/07/24 08:25:45;;;;;;;1.17;0.90;;;;;;;27.72;38.58;100607.20;2194192;80;21040;-75
2022/07/24 08:28:46;;;;;;;2.20;1.30;;;;;;;27.90;38.73;100605.92;2193396;80;21043;-75
2022/07/24 08:31:48;;;;;;;2.02;1.05;;;;;;;28.02;38.06;100607.02;2190499;80;20993;-74
2022/07/24 08:34:49;;;;;;;2.87;1.50;;;;;;;28.07;38.27;100613.02;2190659;80;21059;-72
2022/07/24 08:37:51;;;;;;;1.50;1.40;;;;;;;28.28;38.28;100612.49;2194742;80;21602;-74
2022/07/24 08:40:52;;;;;;;1.82;1.62;;;;;;;28.44;37.70;100616.89;2163606;80;20985;-78
2022/07/24 08:43:54;;;;;;;5.08;1.60;;;;;;;28.51;38.04;100605.14;2192103;80;21503;-75
2022/07/24 08:46:58;;;;;;;1.52;1.40;;;;;;;28.68;37.82;100602.66;2194296;80;21692;-76
2022/07/24 08:50:04;;;;;;;2.80;1.70;;;;;;;28.72;37.65;100603.73;2188214;80;21107;-75
2022/07/24 08:53:06;;;;;;;4.25;1.57;;;;;;;28.55;37.12;100608.97;2198535;80;21630;-76
2022/07/24 08:56:07;;;;;;;2.47;1.60;;;;;;;28.51;37.97;100606.50;2195405;79;20993;-78
2022/07/24 08:59:21;;;;;;;2.67;1.62;;;;;;;28.57;37.40;100601.86;2187982;80;21090;-76
2022/07/24 09:02:22;;;;;;;3.47;1.75;;;;;;;28.58;37.50;100602.95;2189467;80;21377;-76
2022/07/24 09:05:24;;;;;;;2.05;1.40;;;;;;;28.56;37.55;100607.87;2190804;80;21047;-77
2022/07/24 09:08:25;;;;;;;2.80;1.62;;;;;;;28.70;36.91;100614.95;2200041;79;21598;-76
2022/07/24 09:11:29;;;;;;;4.45;1.52;;;;;;;28.78;36.49;100614.94;2203357;80;21004;-74
2022/07/24 09:14:32;;;;;;;4.78;1.52;;;;;;;28.92;36.46;100614.64;2200855;80;21495;-80
2022/07/24 09:17:34;;;;;;;2.62;1.60;;;;;;;29.16;36.99;100611.30;2194131;80;20976;-76
2022/07/24 09:20:37;;;;;;;3.75;1.55;;;;;;;29.26;36.07;100614.82;2199976;80;21035;-75
2022/07/24 09:23:41;;;;;;;2.35;1.70;;;;;;;28.67;36.61;100611.96;2201001;80;20953;-76
2022/07/24 09:26:51;;;;;;;3.35;1.70;;;;;;;28.67;36.61;100611.96;2201661;80;21017;-76
2022/07/24 09:29:52;;;;;;;2.27;1.30;;;;;;;28.71;36.20;100613.03;2198137;80;21563;-76
2022/07/24 09:32:58;;;;;;;5.15;2.00;;;;;;;28.65;36.27;100615.50;2198089;80;20953;-75
2022/07/24 09:36:02;;;;;;;2.22;1.90;;;;;;;29.09;35.90;100614.87;2193979;80;20985;-75
2022/07/24 09:39:04;;;;;;;2.08;1.52;;;;;;;29.09;35.90;100614.87;2172511;80;21519;-76
2022/07/24 09:42:08;;;;;;;3.42;1.50;;;;;;;29.08;35.64;100624.17;2170386;80;21037;-77
2022/07/24 09:45:13;;;;;;;3.30;1.35;;;;;;;29.13;35.30;100622.80;2196089;80;20993;-75
2022/07/24 09:48:15;;;;;;;1.30;1.20;;;;;;;29.27;35.28;100613.72;2200773;80;21032;-74
2022/07/24 09:51:18;;;;;;;1.65;1.20;;;;;;;29.48;35.41;100614.98;2197343;80;20957;-77
2022/07/24 09:54:36;;;;;;;2.15;1.55;;;;;;;29.61;35.47;100608.09;2197056;80;21027;-80
2022/07/24 09:57:39;;;;;;;3.50;1.57;;;;;;;29.66;34.07;100612.20;2200247;80;21036;-69
2022/07/24 10:00:43;;;;;;;1.62;1.40;;;;;;;29.46;34.67;100612.55;2148981;81;21527;-79
2022/07/24 10:03:48;;;;;;;5.50;1.95;;;;;;;29.44;34.20;100615.29;2148093;82;21017;-77
2022/07/24 10:06:51;;;;;;;1.80;1.70;;;;;;;29.38;34.30;100619.15;2144301;82;21583;-80
2022/07/24 10:09:58;;;;;;;3.22;1.37;;;;;;;29.55;34.36;100620.16;2142761;82;21511;-75
2022/07/24 10:13:02;;;;;;;2.00;1.80;;;;;;;29.63;34.22;100612.77;2144291;82;20981;-77
2022/07/24 10:16:15;;;;;;;1.75;1.32;;;;;;;29.73;34.06;100614.06;2149010;81;21038;-77
2022/07/24 10:19:20;;;;;;;1.72;1.60;;;;;;;29.92;33.87;100612.30;2155246;81;21004;-72
2022/07/24 10:22:24;;;;;;;6.25;1.50;;;;;;;29.79;33.52;100614.32;2121019;82;21508;-78
2022/07/24 10:25:26;;;;;;;2.17;1.60;;;;;;;29.63;33.29;100608.67;2144830;81;21084;-74
2022/07/24 10:28:41;;;;;;;1.50;1.30;;;;;;;29.33;33.02;100604.95;2147490;81;21043;-70
2022/07/24 10:31:56;;;;;;;3.10;1.65;;;;;;;29.35;32.98;100609.59;2145660;81;21051;-74
2022/07/24 10:35:12;;;;;;;1.37;1.27;;;;;;;29.56;33.47;100606.20;2147447;81;20992;-74
2022/07/24 10:38:19;;;;;;;2.60;1.80;;;;;;;29.60;33.42;100599.08;2146252;81;21013;-74
2022/07/24 10:41:26;;;;;;;2.08;1.22;;;;;;;29.58;33.24;100603.20;2146096;81;21040;-77
2022/07/24 10:44:28;;;;;;;2.62;1.50;;;;;;;29.58;33.38;100604.00;2149551;81;20997;-76
2022/07/24 10:47:32;;;;;;;2.65;1.47;;;;;;;29.33;33.21;100600.84;2149118;81;21118;-76
2022/07/24 10:51:07;;;;;;;1.30;1.20;;;;;;;29.45;33.42;100593.16;2145976;81;20999;-76
2022/07/24 10:54:08;;;;;;;1.40;1.30;;;;;;;29.65;33.29;100599.61;2134077;81;20981;-75
2022/07/24 10:57:10;;;;;;;2.58;1.87;;;;;;;29.57;32.85;100602.94;2127039;81;21050;-74
2022/07/24 11:00:29;;;;;;;1.40;1.10;;;;;;;29.39;32.73;100591.52;2144192;81;20992;-75
2022/07/24 11:03:32;;;;;;;1.10;1.00;;;;;;;29.56;32.61;100588.98;2143192;81;21649;-76
2022/07/24 11:06:50;;;;;;;2.05;1.20;;;;;;;29.80;32.98;100591.33;2142447;81;21474;-74
2022/07/24 11:10:07;;;;;;;4.22;1.32;;;;;;;29.75;32.15;100597.39;2213079;78;21094;-77
2022/07/24 11:13:34;;;;;;;2.15;1.10;;;;;;;29.74;31.61;100597.94;2238835;78;21409;-74
2022/07/24 11:16:36;;;;;;;1.30;1.10;;;;;;;29.63;31.70;100588.16;2238729;78;21087;-73
2022/07/24 11:19:38;;;;;;;2.40;1.17;;;;;;;29.62;31.07;100572.81;2214081;78;21017;-75
2022/07/24 11:22:53;;;;;;;2.00;1.00;;;;;;;29.52;31.42;100578.36;2243408;78;20997;-72
2022/07/24 11:26:39;;;;;;;0.78;0.78;;;;;;;29.52;31.55;100579.72;2242496;78;21504;-72
2022/07/24 11:29:39;;;;;;;1.30;0.90;;;;;;;29.54;31.07;100573.41;2238657;78;20989;-73
2022/07/24 11:32:42;;;;;;;1.22;1.15;;;;;;;29.61;31.25;100569.27;2244093;78;21068;-77
2022/07/24 11:35:44;;;;;;;1.30;1.20;;;;;;;29.70;31.36;100564.05;2240945;78;20998;-74
2022/07/24 11:38:46;;;;;;;1.55;1.12;;;;;;;29.66;31.38;100558.33;2241481;78;21068;-75
2022/07/24 11:41:56;;;;;;;2.77;0.90;;;;;;;29.59;31.75;100556.97;2242231;78;20977;-76
2022/07/24 11:44:58;;;;;;;1.37;1.15;;;;;;;29.69;31.31;100556.95;2240277;78;20953;-75
2022/07/24 11:48:00;;;;;;;1.30;1.10;;;;;;;29.57;31.16;100559.20;2238257;78;21068;-75
2022/07/24 11:51:06;;;;;;;2.20;1.10;;;;;;;29.54;31.47;100569.30;2242827;78;21076;-75
2022/07/24 11:54:08;;;;;;;1.60;1.15;;;;;;;29.44;31.07;100561.44;2238318;78;21532;-74
2022/07/24 11:57:22;;;;;;;3.08;1.00;;;;;;;29.37;31.81;100560.10;2241936;78;21035;-74
2022/07/24 12:00:27;;;;;;;3.27;1.12;;;;;;;29.32;31.02;100556.86;2242981;78;21430;-74
2022/07/24 12:03:29;;;;;;;1.12;1.02;;;;;;;29.15;31.27;100553.67;2238792;78;21017;-74
2022/07/24 12:06:31;;;;;;;1.17;0.93;;;;;;;29.35;31.51;100550.83;2238855;78;21172;-74
2022/07/24 12:09:33;;;;;;;6.47;1.10;;;;;;;29.33;30.84;100551.66;2233178;78;21522;-74
2022/07/24 12:12:39;;;;;;;1.35;1.10;;;;;;;29.34;31.33;100550.58;2207757;78;21052;-74
2022/07/24 12:15:40;;;;;;;2.05;1.10;;;;;;;29.34;31.23;100549.73;2239827;78;21042;-75
2022/07/24 12:18:42;;;;;;;1.10;1.00;;;;;;;29.22;31.02;100547.34;2242360;78;21035;-75
2022/07/24 12:21:45;;;;;;;1.45;1.05;;;;;;;29.10;30.95;100548.23;2238239;77;20981;-74
2022/07/24 12:24:47;;;;;;;1.42;1.05;;;;;;;28.98;31.00;100550.70;2244145;78;21152;-74
2022/07/24 12:27:49;;;;;;;2.80;1.15;;;;;;;29.06;30.95;100550.70;2239392;78;22041;-75
2022/07/24 12:30:54;;;;;;;1.37;0.90;;;;;;;29.02;31.14;100540.02;2216803;78;20954;-74
2022/07/24 12:33:55;;;;;;;3.85;0.90;;;;;;;28.99;30.68;100540.03;2140772;82;21049;-74
2022/07/24 12:36:57;;;;;;;1.15;1.05;;;;;;;28.81;31.58;100516.09;2200709;79;21076;-73
2022/07/24 12:39:59;;;;;;;2.55;1.15;;;;;;;28.94;31.34;100538.69;2200198;79;20956;-74
2022/07/24 12:43:13;;;;;;;0.88;0.88;;;;;;;28.78;30.84;100535.20;2164241;81;21071;-74
2022/07/24 12:46:17;;;;;;;2.25;1.10;;;;;;;28.81;30.84;100540.11;2169826;81;21028;-74
2022/07/24 12:49:21;;;;;;;1.02;1.00;;;;;;;28.68;30.64;100532.49;2167416;81;21577;-76
2022/07/24 12:52:24;;;;;;;1.25;1.10;;;;;;;28.75;31.02;100534.95;2167053;81;21019;-75
2022/07/24 12:55:26;;;;;;;0.95;0.90;;;;;;;28.75;30.79;100530.86;2167242;81;21553;-74
2022/07/24 12:58:28;;;;;;;1.47;1.10;;;;;;;28.76;30.84;100528.39;2153902;81;21030;-75
2022/07/24 13:01:49;;;;;;;1.52;1.20;;;;;;;28.66;30.75;100527.04;2158956;81;21133;-73
2022/07/24 13:04:54;;;;;;;1.62;1.20;;;;;;;28.63;30.86;100534.42;2238821;78;20975;-74
2022/07/24 13:07:55;;;;;;;1.45;1.15;;;;;;;28.71;31.47;100533.86;2236105;78;21072;-74
2022/07/24 13:10:57;;;;;;;1.50;1.22;;;;;;;28.80;31.65;100540.38;2238546;78;21457;-76
2022/07/24 13:13:59;;;;;;;2.12;1.27;;;;;;;28.78;31.00;100528.94;2242094;78;21040;-73
2022/07/24 13:17:11;;;;;;;1.25;1.00;;;;;;;28.41;30.75;100523.78;2196023;80;20962;-74
2022/07/24 13:20:12;;;;;;;4.80;1.00;;;;;;;28.31;31.06;100526.00;2238240;78;21584;-76
2022/07/24 13:23:14;;;;;;;1.10;1.00;;;;;;;28.28;31.61;100521.09;2241474;78;21008;-76
2022/07/24 13:26:16;;;;;;;1.62;0.88;;;;;;;28.39;31.82;100524.08;2243115;78;21005;-74
2022/07/24 13:29:20;;;;;;;1.70;1.22;;;;;;;28.38;31.59;100515.60;2189783;80;21072;-74
2022/07/24 13:32:22;;;;;;;1.70;1.32;;;;;;;28.36;31.07;100510.98;2240197;78;21096;-73
2022/07/24 13:35:25;;;;;;;2.25;0.80;;;;;;;28.29;30.98;100511.80;2240649;78;21497;-74
2022/07/24 13:38:26;;;;;;;1.40;1.05;;;;;;;28.12;31.43;100508.81;2236243;78;20962;-75
2022/07/24 13:41:28;;;;;;;1.47;0.82;;;;;;;28.18;31.79;100508.82;2245959;78;21714;-73
2022/07/24 13:44:29;;;;;;;1.37;1.05;;;;;;;28.32;31.72;100500.34;2239771;78;22127;-74
2022/07/24 13:47:31;;;;;;;3.35;0.90;;;;;;;28.30;31.62;100510.18;2235730;78;20957;-72
2022/07/24 13:50:32;;;;;;;0.93;0.93;;;;;;;28.33;31.55;100507.45;2241424;78;21469;-75
2022/07/24 13:53:36;;;;;;;1.50;1.10;;;;;;;28.26;31.84;100506.91;2243702;78;21505;-71
2022/07/24 13:56:39;;;;;;;4.10;1.27;;;;;;;28.13;32.04;100504.20;2245017;78;21604;-75
2022/07/24 13:59:40;;;;;;;1.07;1.00;;;;;;;28.06;31.97;100500.92;2247543;77;21008;-72
2022/07/24 14:02:42;;;;;;;0.85;0.80;;;;;;;28.07;31.54;100503.39;2241789;78;21446;-71
2022/07/24 14:05:43;;;;;;;1.22;1.00;;;;;;;27.91;31.12;100499.84;2240749;78;20966;-71
2022/07/24 14:08:45;;;;;;;1.82;0.98;;;;;;;27.81;31.35;100501.74;2240572;78;21029;-74